Terminal Aerodrome Forecast
Issued by NWS Cleveland, OH

Home | Current Version | Previous Version | Graphics & Text | Print | Product List | Glossary On
Versions: 1 2 3 4 5 6 7 8 9 10 11 12 13 14 15 16 17 18 19
000
FTUS41 KCLE 160523
TAFCLE
TAF
KCLE 160523Z 1606/1712 33012G20KT P6SM BKN035
     FM160900 33010KT P6SM BKN040
     FM161400 32010KT P6SM SCT035
     FM170200 19004KT P6SM BKN060=

USA.gov is the U.S. government's official web portal to all federal, state and local government web resources and services.